createdAt,value
2022-12-24T00:01:30.508Z,9.10
2022-12-24T00:03:57.812Z,9.00
2022-12-24T00:06:25.720Z,9.10
2022-12-24T00:08:53.182Z,9.10
2022-12-24T00:11:21.351Z,9.10
2022-12-24T00:13:49.223Z,9.10
2022-12-24T00:16:16.808Z,9.10
2022-12-24T00:18:46.728Z,9.10
2022-12-24T00:21:20.210Z,9.10
2022-12-24T00:23:47.774Z,9.10
2022-12-24T00:26:15.310Z,9.10
2022-12-24T00:28:42.640Z,9.10
2022-12-24T00:31:12.383Z,9.10
2022-12-24T00:33:39.984Z,9.10
2022-12-24T00:36:09.798Z,9.10
2022-12-24T00:38:37.635Z,9.00
2022-12-24T00:41:26.015Z,9.00
2022-12-24T00:44:02.406Z,9.00
2022-12-24T00:46:31.635Z,9.00
2022-12-24T00:48:59.513Z,9.00
2022-12-24T00:51:28.917Z,9.00
2022-12-24T00:53:57.168Z,9.00
2022-12-24T00:56:24.433Z,9.00
2022-12-24T00:58:52.158Z,9.10
2022-12-24T01:01:20.554Z,9.20
2022-12-24T01:03:51.192Z,9.20
2022-12-24T01:06:21.015Z,9.20
2022-12-24T01:08:52.234Z,9.20
2022-12-24T01:11:19.620Z,9.10
2022-12-24T01:13:47.051Z,9.10
2022-12-24T01:16:18.227Z,9.20
2022-12-24T01:18:45.666Z,9.30
2022-12-24T01:21:13.042Z,9.30
2022-12-24T01:23:40.911Z,9.30
2022-12-24T01:26:09.948Z,9.20
2022-12-24T01:28:40.202Z,9.10
2022-12-24T01:31:14.509Z,9.10
2022-12-24T01:33:42.683Z,9.10
2022-12-24T01:36:11.370Z,9.10
2022-12-24T01:38:41.711Z,9.00
2022-12-24T01:41:38.918Z,9.00
2022-12-24T01:44:36.150Z,9.00
2022-12-24T01:47:09.927Z,9.10
2022-12-24T01:49:42.286Z,9.10
2022-12-24T01:52:19.840Z,9.00
2022-12-24T01:55:00.845Z,9.00
2022-12-24T01:57:31.724Z,9.00
2022-12-24T02:00:05.107Z,9.00
2022-12-24T02:02:33.604Z,9.00
2022-12-24T02:05:22.556Z,9.00
2022-12-24T02:07:50.281Z,8.90
2022-12-24T02:10:18.294Z,9.00
2022-12-24T02:12:47.220Z,9.00
2022-12-24T02:15:17.307Z,9.00
2022-12-24T02:18:14.929Z,9.00
2022-12-24T02:21:09.274Z,9.00
2022-12-24T02:24:09.138Z,9.00
2022-12-24T02:27:23.877Z,9.00
2022-12-24T02:30:03.256Z,8.90
2022-12-24T02:32:36.721Z,8.80
2022-12-24T02:35:16.130Z,8.80
2022-12-24T02:37:58.076Z,8.80
2022-12-24T02:40:29.548Z,8.80
2022-12-24T02:43:01.199Z,8.70
2022-12-24T02:45:31.180Z,8.60
2022-12-24T02:47:59.990Z,8.60
2022-12-24T02:50:27.953Z,8.50
2022-12-24T02:52:55.324Z,8.50
2022-12-24T02:55:57.808Z,8.50
2022-12-24T02:58:42.010Z,8.50
2022-12-24T03:01:21.229Z,8.40
2022-12-24T03:03:54.920Z,8.50
2022-12-24T03:06:40.874Z,8.40
2022-12-24T03:09:19.141Z,8.40
2022-12-24T03:11:55.364Z,8.50
2022-12-24T03:14:23.499Z,8.50
2022-12-24T03:16:51.192Z,8.50
2022-12-24T03:19:20.345Z,8.30
2022-12-24T03:21:48.302Z,8.30
2022-12-24T03:24:15.669Z,8.20
2022-12-24T03:26:52.314Z,8.10
2022-12-24T03:29:20.507Z,8.10
2022-12-24T03:31:51.134Z,8.10
2022-12-24T03:34:19.139Z,8.10
2022-12-24T03:36:48.353Z,8.10
2022-12-24T03:39:16.041Z,8.10
2022-12-24T03:41:46.352Z,8.30
2022-12-24T03:44:13.611Z,8.30
2022-12-24T03:46:41.080Z,8.30
2022-12-24T03:49:08.647Z,8.30
2022-12-24T03:51:36.080Z,8.30
2022-12-24T03:54:03.456Z,8.30
2022-12-24T03:56:32.845Z,8.30
2022-12-24T03:59:00.273Z,8.30
2022-12-24T04:01:27.675Z,8.30
2022-12-24T04:03:55.883Z,8.30
2022-12-24T04:06:23.449Z,8.40
2022-12-24T04:08:50.725Z,8.40
2022-12-24T04:11:19.028Z,8.40
2022-12-24T04:13:46.574Z,8.40
2022-12-24T04:16:18.746Z,8.40
2022-12-24T04:18:46.011Z,8.40
2022-12-24T04:21:13.424Z,8.40
2022-12-24T04:23:42.374Z,8.40
2022-12-24T04:26:12.300Z,8.50
2022-12-24T04:28:41.258Z,8.40
2022-12-24T04:31:12.311Z,8.40
2022-12-24T04:33:39.951Z,8.40
2022-12-24T04:36:08.561Z,8.40
2022-12-24T04:38:35.840Z,8.40
2022-12-24T04:41:06.120Z,8.40
2022-12-24T04:43:34.039Z,8.40
2022-12-24T04:46:19.847Z,8.30
2022-12-24T04:48:49.489Z,8.30
2022-12-24T04:51:18.037Z,8.30
2022-12-24T04:53:48.294Z,8.30
2022-12-24T04:56:21.652Z,8.30
2022-12-24T04:58:49.536Z,8.30
2022-12-24T05:01:22.459Z,8.30
2022-12-24T05:03:51.200Z,8.20
2022-12-24T05:06:26.830Z,8.20
2022-12-24T05:08:55.724Z,8.20
2022-12-24T05:11:23.528Z,8.20
2022-12-24T05:13:51.632Z,8.10
2022-12-24T05:16:20.656Z,8.10
2022-12-24T05:18:48.739Z,8.10
2022-12-24T05:21:19.229Z,8.10
2022-12-24T05:24:05.182Z,8.00
2022-12-24T05:26:44.288Z,7.80
2022-12-24T05:29:12.472Z,7.80
2022-12-24T05:31:40.350Z,7.80
2022-12-24T05:34:09.032Z,7.80
2022-12-24T05:36:36.416Z,7.80
2022-12-24T05:39:05.411Z,7.80
2022-12-24T05:41:39.752Z,7.80
2022-12-24T05:44:07.238Z,7.80
2022-12-24T05:46:35.993Z,7.80
2022-12-24T05:49:03.634Z,7.80
2022-12-24T05:51:30.972Z,7.80
2022-12-24T05:53:58.364Z,7.80
2022-12-24T05:56:26.684Z,7.90
2022-12-24T05:58:57.138Z,7.90
2022-12-24T06:01:25.865Z,8.00
2022-12-24T06:03:53.667Z,8.00
2022-12-24T06:06:24.008Z,8.00
2022-12-24T06:08:53.177Z,8.00
2022-12-24T06:11:23.897Z,8.00
2022-12-24T06:13:52.537Z,8.00
2022-12-24T06:16:24.431Z,8.00
2022-12-24T06:18:52.337Z,8.00
2022-12-24T06:21:20.292Z,8.10
2022-12-24T06:23:50.954Z,8.10
2022-12-24T06:26:22.507Z,8.10
2022-12-24T06:28:51.183Z,8.10
2022-12-24T06:31:21.159Z,8.10
2022-12-24T06:33:49.916Z,8.10
2022-12-24T06:36:20.536Z,8.10
2022-12-24T06:38:50.043Z,8.10
2022-12-24T06:41:18.515Z,8.10
2022-12-24T06:43:47.109Z,8.10
2022-12-24T06:46:15.781Z,8.00
2022-12-24T06:48:44.841Z,8.00
2022-12-24T06:51:13.793Z,8.00
2022-12-24T06:53:41.804Z,7.90
2022-12-24T06:56:12.016Z,8.00
2022-12-24T06:58:40.848Z,8.00
2022-12-24T07:01:10.610Z,8.00
2022-12-24T07:03:38.308Z,8.00
2022-12-24T07:06:05.900Z,8.00
2022-12-24T07:08:34.108Z,7.90
2022-12-24T07:11:01.888Z,7.90
2022-12-24T07:13:29.373Z,7.90
2022-12-24T07:16:01.637Z,7.80
2022-12-24T07:18:31.743Z,7.80
2022-12-24T07:21:04.481Z,7.60
2022-12-24T07:23:32.253Z,7.60
2022-12-24T07:26:05.212Z,7.50
2022-12-24T07:28:34.857Z,7.50
2022-12-24T07:31:02.275Z,7.50
2022-12-24T07:33:30.167Z,7.60
2022-12-24T07:36:05.024Z,7.70
2022-12-24T07:38:33.651Z,7.80
2022-12-24T07:41:01.320Z,7.80
2022-12-24T07:43:29.012Z,7.80
2022-12-24T07:45:57.902Z,7.80
2022-12-24T07:48:30.298Z,7.90
2022-12-24T07:50:57.957Z,7.90
2022-12-24T07:53:27.551Z,7.90
2022-12-24T07:55:55.468Z,8.00
2022-12-24T07:58:23.733Z,8.00
2022-12-24T08:00:59.564Z,8.10
2022-12-24T08:03:27.814Z,8.10
2022-12-24T08:05:55.687Z,8.20
2022-12-24T08:08:23.295Z,8.20
2022-12-24T08:10:50.921Z,8.30
2022-12-24T08:13:20.427Z,8.30
2022-12-24T08:15:48.035Z,8.30
2022-12-24T08:18:17.572Z,8.40
2022-12-24T08:20:44.872Z,8.40
2022-12-24T08:23:12.469Z,8.40
2022-12-24T08:25:45.916Z,8.50
2022-12-24T08:28:14.872Z,8.50
2022-12-24T08:30:45.379Z,8.60
2022-12-24T08:33:12.609Z,8.60
2022-12-24T08:35:40.185Z,8.60
2022-12-24T08:38:07.496Z,8.70
2022-12-24T08:40:34.776Z,8.60
2022-12-24T08:43:02.895Z,8.50
2022-12-24T08:45:33.341Z,8.60
2022-12-24T08:48:08.889Z,8.50
2022-12-24T08:50:39.441Z,8.40
2022-12-24T08:53:06.870Z,8.40
2022-12-24T08:55:34.712Z,8.40
2022-12-24T08:58:02.279Z,8.40
2022-12-24T09:00:32.733Z,8.40
2022-12-24T09:03:00.181Z,8.50
2022-12-24T09:05:27.899Z,8.50
2022-12-24T09:07:55.112Z,8.50
2022-12-24T09:10:22.824Z,8.50
2022-12-24T09:12:51.265Z,8.50
2022-12-24T09:15:19.127Z,8.50
2022-12-24T09:17:46.404Z,8.60
2022-12-24T09:20:13.844Z,8.70
2022-12-24T09:22:41.225Z,8.80
2022-12-24T09:25:10.568Z,8.90
2022-12-24T09:27:38.494Z,9.20
2022-12-24T09:30:17.775Z,9.80
2022-12-24T09:32:45.138Z,10.30
2022-12-24T09:35:12.337Z,10.70
2022-12-24T09:37:39.571Z,11.00
2022-12-24T09:40:07.557Z,11.00
2022-12-24T09:42:52.511Z,10.80
2022-12-24T09:45:42.074Z,10.60
2022-12-24T09:48:13.270Z,10.40
2022-12-24T09:50:56.769Z,10.20
2022-12-24T09:53:45.863Z,10.10
2022-12-24T09:56:25.821Z,10.10
2022-12-24T09:59:01.940Z,10.20
2022-12-24T10:01:34.309Z,10.10
2022-12-24T10:04:15.564Z,10.00
2022-12-24T10:06:45.670Z,9.90
2022-12-24T10:09:35.157Z,9.90
2022-12-24T10:12:42.086Z,9.80
2022-12-24T10:15:29.012Z,9.70
2022-12-24T10:18:27.159Z,9.70
2022-12-24T10:21:13.499Z,9.80
2022-12-24T10:24:19.275Z,9.80
2022-12-24T10:26:55.296Z,9.90
2022-12-24T10:29:33.953Z,9.90
2022-12-24T10:32:10.386Z,9.90
2022-12-24T10:34:43.502Z,9.90
2022-12-24T10:37:23.681Z,9.90
2022-12-24T10:39:52.185Z,9.90
2022-12-24T10:42:21.901Z,9.90
2022-12-24T10:44:57.228Z,9.90
2022-12-24T10:47:25.588Z,10.00
2022-12-24T10:50:31.185Z,10.10
2022-12-24T10:53:07.058Z,10.10
2022-12-24T10:55:34.365Z,10.20
2022-12-24T10:58:06.563Z,10.30
2022-12-24T11:00:36.479Z,10.30
2022-12-24T11:03:23.431Z,10.40
2022-12-24T11:06:04.993Z,10.50
2022-12-24T11:08:33.861Z,10.60
2022-12-24T11:11:07.396Z,10.60
2022-12-24T11:13:41.400Z,10.60
2022-12-24T11:16:18.417Z,10.70
2022-12-24T11:18:51.537Z,10.90
2022-12-24T11:21:34.677Z,10.90
2022-12-24T11:24:33.101Z,11.00
2022-12-24T11:27:23.155Z,11.00
2022-12-24T11:29:50.914Z,10.90
2022-12-24T11:32:21.514Z,10.80
2022-12-24T11:34:50.154Z,10.70
2022-12-24T11:37:21.951Z,10.60
2022-12-24T11:39:55.734Z,10.50
2022-12-24T11:42:38.436Z,10.50
2022-12-24T11:45:31.619Z,10.50
2022-12-24T11:48:00.032Z,10.40
2022-12-24T11:50:40.383Z,10.40
2022-12-24T11:53:30.871Z,10.30
2022-12-24T11:56:03.419Z,10.30
2022-12-24T11:58:49.236Z,10.40
2022-12-24T12:01:24.698Z,10.50
2022-12-24T12:03:57.375Z,10.50
2022-12-24T12:06:43.066Z,10.50
2022-12-24T12:09:46.277Z,10.50
2022-12-24T12:12:26.313Z,10.50
2022-12-24T12:15:11.445Z,10.50
2022-12-24T12:17:50.322Z,10.60
2022-12-24T12:20:46.257Z,10.50
2022-12-24T12:23:34.553Z,10.40
2022-12-24T12:26:11.344Z,10.50
2022-12-24T12:29:05.127Z,10.60
2022-12-24T12:31:35.968Z,10.50
2022-12-24T12:34:14.082Z,10.50
2022-12-24T12:36:53.154Z,10.40
2022-12-24T12:39:20.526Z,10.40
2022-12-24T12:42:21.705Z,10.30
2022-12-24T12:45:02.906Z,10.20
2022-12-24T12:48:12.233Z,10.30
2022-12-24T12:50:42.204Z,10.30
2022-12-24T12:53:18.283Z,10.30
2022-12-24T12:56:24.795Z,10.40
2022-12-24T12:58:55.034Z,10.40
2022-12-24T13:02:01.789Z,10.40
2022-12-24T13:04:44.332Z,10.40
2022-12-24T13:07:37.597Z,10.50
2022-12-24T13:10:23.852Z,10.50
2022-12-24T13:13:14.111Z,10.60
2022-12-24T13:16:14.259Z,10.60
2022-12-24T13:19:08.530Z,10.60
2022-12-24T13:21:35.989Z,10.70
2022-12-24T13:24:28.139Z,10.60
2022-12-24T13:27:07.451Z,10.70
2022-12-24T13:29:57.306Z,10.80
2022-12-24T13:32:24.514Z,10.70
2022-12-24T13:35:03.530Z,10.70
2022-12-24T13:37:30.759Z,10.70
2022-12-24T13:40:09.954Z,10.70
2022-12-24T13:42:47.222Z,10.70
2022-12-24T13:45:34.363Z,10.70
2022-12-24T13:48:07.872Z,10.70
2022-12-24T13:50:35.163Z,10.70
2022-12-24T13:53:03.100Z,10.60
2022-12-24T13:55:31.608Z,10.70
2022-12-24T13:58:04.243Z,10.60
2022-12-24T14:00:40.327Z,10.60
2022-12-24T14:03:14.171Z,10.60
2022-12-24T14:05:44.257Z,10.70
2022-12-24T14:08:16.685Z,10.70
2022-12-24T14:10:58.780Z,10.70
2022-12-24T14:13:38.093Z,10.70
2022-12-24T14:16:17.386Z,10.70
2022-12-24T14:18:57.696Z,10.70
2022-12-24T14:21:57.893Z,10.70
2022-12-24T14:24:28.207Z,10.60
2022-12-24T14:27:01.725Z,10.50
2022-12-24T14:29:33.979Z,10.40
2022-12-24T14:32:04.345Z,10.30
2022-12-24T14:34:32.079Z,10.30
2022-12-24T14:37:03.389Z,10.40
2022-12-24T14:39:32.422Z,10.40
2022-12-24T14:42:23.922Z,10.40
2022-12-24T14:45:05.417Z,10.40
2022-12-24T14:48:09.632Z,10.30
2022-12-24T14:50:45.256Z,10.30
2022-12-24T14:53:40.178Z,10.40
2022-12-24T14:56:22.524Z,10.30
2022-12-24T14:58:50.355Z,10.40
2022-12-24T15:01:26.938Z,10.30
2022-12-24T15:04:02.293Z,10.30
2022-12-24T15:06:35.236Z,10.30
2022-12-24T15:09:05.204Z,10.30
2022-12-24T15:11:32.765Z,10.40
2022-12-24T15:14:00.592Z,10.30
2022-12-24T15:16:34.252Z,10.30
2022-12-24T15:19:07.997Z,10.30
2022-12-24T15:21:41.345Z,10.30
2022-12-24T15:24:25.955Z,10.20
2022-12-24T15:26:54.469Z,10.10
2022-12-24T15:29:28.277Z,10.20
2022-12-24T15:32:00.558Z,10.20
2022-12-24T15:34:37.322Z,10.30
2022-12-24T15:37:13.493Z,10.30
2022-12-24T15:39:41.784Z,10.30
2022-12-24T15:42:14.413Z,10.30
2022-12-24T15:45:28.214Z,10.30
2022-12-24T15:48:00.219Z,10.40
2022-12-24T15:50:36.547Z,10.30
2022-12-24T15:53:33.187Z,10.30
2022-12-24T15:56:04.584Z,10.20
2022-12-24T15:58:45.353Z,10.10
2022-12-24T16:01:15.712Z,10.10
2022-12-24T16:03:52.150Z,10.10
2022-12-24T16:06:19.987Z,10.00
2022-12-24T16:08:47.926Z,9.90
2022-12-24T16:11:23.666Z,9.90
2022-12-24T16:13:51.014Z,9.80
2022-12-24T16:16:21.136Z,9.80
2022-12-24T16:18:51.459Z,9.80
2022-12-24T16:21:38.873Z,9.80
2022-12-24T16:24:17.072Z,9.80
2022-12-24T16:26:44.594Z,9.70
2022-12-24T16:29:16.416Z,9.70
2022-12-24T16:31:51.436Z,9.70
2022-12-24T16:34:20.660Z,9.60
2022-12-24T16:36:48.025Z,9.60
2022-12-24T16:39:23.880Z,9.60
2022-12-24T16:42:14.805Z,9.60
2022-12-24T16:44:42.208Z,9.60
2022-12-24T16:47:19.491Z,9.60
2022-12-24T16:49:47.162Z,9.50
2022-12-24T16:52:22.131Z,9.50
2022-12-24T16:54:50.605Z,9.50
2022-12-24T16:57:19.401Z,9.60
2022-12-24T16:59:46.920Z,9.50
2022-12-24T17:02:16.982Z,9.50
2022-12-24T17:04:45.288Z,9.40
2022-12-24T17:07:14.876Z,9.40
2022-12-24T17:09:42.199Z,9.40
2022-12-24T17:12:10.294Z,9.30
2022-12-24T17:14:39.272Z,9.30
2022-12-24T17:17:06.573Z,9.30
2022-12-24T17:19:33.913Z,9.30
2022-12-24T17:22:01.265Z,9.20
2022-12-24T17:24:28.534Z,9.10
2022-12-24T17:26:55.853Z,9.10
2022-12-24T17:29:23.115Z,9.10
2022-12-24T17:31:51.429Z,9.10
2022-12-24T17:34:18.759Z,9.00
2022-12-24T17:36:46.689Z,9.10
2022-12-24T17:39:14.008Z,9.00
2022-12-24T17:41:41.775Z,9.00
2022-12-24T17:44:13.035Z,8.90
2022-12-24T17:46:41.227Z,8.90
2022-12-24T17:49:09.277Z,8.90
2022-12-24T17:51:40.235Z,8.90
2022-12-24T17:54:12.334Z,8.80
2022-12-24T17:56:39.605Z,8.80
2022-12-24T17:59:06.843Z,8.80
2022-12-24T18:01:37.099Z,8.80
2022-12-24T18:04:06.167Z,8.80
2022-12-24T18:06:33.667Z,8.70
2022-12-24T18:09:01.283Z,8.70
2022-12-24T18:11:32.808Z,8.70
2022-12-24T18:14:02.047Z,8.70
2022-12-24T18:16:32.996Z,8.60
2022-12-24T18:19:01.023Z,8.60
2022-12-24T18:21:30.609Z,8.60
2022-12-24T18:23:58.402Z,8.60
2022-12-24T18:26:28.935Z,8.50
2022-12-24T18:28:58.053Z,8.50
2022-12-24T18:31:26.858Z,8.50
2022-12-24T18:33:55.880Z,8.50
2022-12-24T18:36:23.805Z,8.50
2022-12-24T18:38:51.644Z,8.50
2022-12-24T18:41:22.796Z,8.50
2022-12-24T18:43:50.749Z,8.40
2022-12-24T18:46:21.386Z,8.40
2022-12-24T18:48:48.834Z,8.40
2022-12-24T18:51:17.443Z,8.40
2022-12-24T18:53:44.922Z,8.30
2022-12-24T18:56:23.299Z,8.20
2022-12-24T18:58:54.290Z,8.20
2022-12-24T19:01:27.522Z,8.20
2022-12-24T19:03:55.317Z,8.20
2022-12-24T19:06:23.540Z,8.20
2022-12-24T19:09:02.182Z,8.20
2022-12-24T19:11:31.548Z,8.20
2022-12-24T19:13:59.546Z,8.20
2022-12-24T19:16:28.824Z,8.10
2022-12-24T19:18:56.519Z,8.10
2022-12-24T19:21:24.319Z,8.00
2022-12-24T19:23:52.219Z,7.90
2022-12-24T19:26:20.707Z,7.90
2022-12-24T19:28:48.384Z,7.90
2022-12-24T19:31:18.877Z,7.90
2022-12-24T19:33:48.446Z,7.90
2022-12-24T19:36:18.614Z,7.90
2022-12-24T19:38:46.558Z,7.80
2022-12-24T19:41:28.658Z,7.80
2022-12-24T19:43:58.400Z,7.80
2022-12-24T19:46:28.612Z,7.70
2022-12-24T19:49:01.863Z,7.80
2022-12-24T19:51:29.839Z,7.70
2022-12-24T19:53:58.793Z,7.80
2022-12-24T19:56:28.497Z,7.80
2022-12-24T19:58:57.444Z,7.80
2022-12-24T20:01:27.603Z,7.70
2022-12-24T20:03:55.841Z,7.80
2022-12-24T20:06:26.156Z,7.70
2022-12-24T20:08:59.701Z,7.70
2022-12-24T20:11:27.332Z,7.70
2022-12-24T20:13:59.287Z,7.70
2022-12-24T20:16:27.663Z,7.70
2022-12-24T20:18:57.736Z,7.70
2022-12-24T20:21:25.713Z,7.60
2022-12-24T20:23:53.132Z,7.60
2022-12-24T20:26:22.483Z,7.60
2022-12-24T20:28:50.649Z,7.60
2022-12-24T20:31:29.425Z,7.70
2022-12-24T20:33:58.273Z,7.70
2022-12-24T20:36:27.059Z,7.80
2022-12-24T20:38:54.546Z,7.70
2022-12-24T20:41:24.294Z,7.70
2022-12-24T20:43:52.033Z,7.70
2022-12-24T20:46:21.831Z,7.70
2022-12-24T20:48:50.617Z,7.70
2022-12-24T20:51:25.432Z,7.80
2022-12-24T20:53:57.839Z,7.90
2022-12-24T20:56:27.843Z,8.00
2022-12-24T20:58:55.520Z,8.00
2022-12-24T21:01:48.407Z,8.00
2022-12-24T21:04:15.922Z,7.90
2022-12-24T21:06:43.365Z,7.90
2022-12-24T21:09:10.949Z,7.90
2022-12-24T21:11:50.111Z,8.00
2022-12-24T21:14:21.494Z,7.90
2022-12-24T21:16:50.321Z,8.00
2022-12-24T21:19:26.637Z,8.10
2022-12-24T21:21:55.172Z,7.90
2022-12-24T21:24:27.351Z,7.80
2022-12-24T21:26:58.478Z,7.70
2022-12-24T21:29:31.169Z,7.70
2022-12-24T21:31:58.984Z,7.70
2022-12-24T21:34:29.802Z,7.60
2022-12-24T21:37:00.299Z,7.60
2022-12-24T21:39:27.756Z,7.50
2022-12-24T21:41:55.054Z,7.50
2022-12-24T21:44:25.305Z,7.50
2022-12-24T21:46:53.135Z,7.50
2022-12-24T21:49:39.610Z,7.50
2022-12-24T21:52:07.006Z,7.50
2022-12-24T21:54:35.114Z,7.40
2022-12-24T21:57:23.952Z,7.40
2022-12-24T21:59:53.302Z,7.40
2022-12-24T22:02:26.559Z,7.40
2022-12-24T22:04:54.280Z,7.40
2022-12-24T22:07:46.183Z,7.40
2022-12-24T22:10:33.080Z,7.30
2022-12-24T22:13:00.782Z,7.30
2022-12-24T22:15:27.975Z,7.30
2022-12-24T22:17:55.370Z,7.20
2022-12-24T22:20:22.756Z,7.20
2022-12-24T22:22:50.071Z,7.20
2022-12-24T22:25:17.577Z,7.20
2022-12-24T22:27:45.083Z,7.20
2022-12-24T22:30:13.219Z,7.20
2022-12-24T22:32:40.416Z,7.10
2022-12-24T22:35:08.077Z,7.20
2022-12-24T22:37:35.412Z,7.30
2022-12-24T22:40:11.930Z,7.10
2022-12-24T22:42:40.964Z,7.10
2022-12-24T22:45:09.649Z,7.10
2022-12-24T22:47:36.953Z,7.10
2022-12-24T22:50:05.084Z,7.00
2022-12-24T22:52:33.989Z,7.10
2022-12-24T22:55:02.065Z,7.10
2022-12-24T22:57:29.473Z,7.00
2022-12-24T22:59:56.724Z,7.00
2022-12-24T23:02:28.400Z,7.00
2022-12-24T23:04:56.935Z,7.10
2022-12-24T23:07:24.765Z,7.10
2022-12-24T23:09:52.227Z,7.10
2022-12-24T23:12:39.454Z,7.10
2022-12-24T23:15:07.476Z,7.20
2022-12-24T23:17:35.414Z,7.20
2022-12-24T23:20:05.891Z,7.20
2022-12-24T23:22:33.113Z,7.30
2022-12-24T23:25:00.845Z,7.30
2022-12-24T23:27:28.149Z,7.30
2022-12-24T23:29:56.106Z,7.30
2022-12-24T23:32:23.644Z,7.30
2022-12-24T23:34:51.231Z,7.30
2022-12-24T23:37:19.288Z,7.30
2022-12-24T23:39:50.257Z,7.30
2022-12-24T23:42:18.142Z,7.40
2022-12-24T23:44:45.825Z,7.40
2022-12-24T23:47:15.725Z,7.40
2022-12-24T23:49:46.430Z,7.40
2022-12-24T23:52:13.915Z,7.40
2022-12-24T23:54:46.512Z,7.40
2022-12-24T23:57:14.094Z,7.40
2022-12-24T23:59:41.395Z,7.30
